РПИ Алматы

Руководитель РПИ

Evgeny Vygornitsky*

Инструкторы РПИ
Evgeny Vygornitsky (Supervisor)
Vitaliy Alekseyev (Instructor)
Входит в состав
ЗЦ Центральная Азия

Диспетчеры РПИ

Диспетчер Рейтинг Допуски *

Аэропорты РПИ

ICAO Город Название Погода
UAAA Алматы Алматы UAAA 161830Z 26002MPS 230V320 2000 R05L/P2000D R05R/P2000N BR FU SCT036CB BKN100 02/M02 Q1013 NOSIG